sensor_id;sensor_type;location;lat;lon;timestamp;P1;durP1;ratioP1;P2;durP2;ratioP2
21299;SDS011;10809;49.476;11.016;2022-08-19T00:01:43;8.90;;;8.10;;
21299;SDS011;10809;49.476;11.016;2022-08-19T00:04:15;10.57;;;9.57;;
21299;SDS011;10809;49.476;11.016;2022-08-19T00:06:51;11.20;;;10.07;;
21299;SDS011;10809;49.476;11.016;2022-08-19T00:09:22;11.00;;;9.82;;
21299;SDS011;10809;49.476;11.016;2022-08-19T00:11:54;9.95;;;9.05;;
21299;SDS011;10809;49.476;11.016;2022-08-19T00:14:27;9.60;;;8.70;;
21299;SDS011;10809;49.476;11.016;2022-08-19T00:17:01;10.45;;;9.25;;
21299;SDS011;10809;49.476;11.016;2022-08-19T00:19:33;9.25;;;8.43;;
21299;SDS011;10809;49.476;11.016;2022-08-19T00:22:06;10.85;;;9.52;;
21299;SDS011;10809;49.476;11.016;2022-08-19T00:24:38;9.75;;;8.75;;
21299;SDS011;10809;49.476;11.016;2022-08-19T00:27:11;9.93;;;8.95;;
21299;SDS011;10809;49.476;11.016;2022-08-19T00:29:42;10.70;;;9.02;;
21299;SDS011;10809;49.476;11.016;2022-08-19T00:32:12;9.98;;;9.07;;
21299;SDS011;10809;49.476;11.016;2022-08-19T00:34:42;10.30;;;9.30;;
21299;SDS011;10809;49.476;11.016;2022-08-19T00:37:13;9.98;;;8.98;;
21299;SDS011;10809;49.476;11.016;2022-08-19T00:39:43;10.45;;;8.93;;
21299;SDS011;10809;49.476;11.016;2022-08-19T00:42:17;10.90;;;9.88;;
21299;SDS011;10809;49.476;11.016;2022-08-19T00:44:48;11.30;;;9.82;;
21299;SDS011;10809;49.476;11.016;2022-08-19T00:47:23;12.55;;;11.25;;
21299;SDS011;10809;49.476;11.016;2022-08-19T00:49:55;12.50;;;11.20;;
21299;SDS011;10809;49.476;11.016;2022-08-19T00:52:28;10.35;;;9.27;;
21299;SDS011;10809;49.476;11.016;2022-08-19T00:55:03;10.38;;;9.38;;
21299;SDS011;10809;49.476;11.016;2022-08-19T00:57:39;10.02;;;9.05;;
21299;SDS011;10809;49.476;11.016;2022-08-19T01:00:13;10.82;;;9.27;;
21299;SDS011;10809;49.476;11.016;2022-08-19T01:02:49;9.93;;;8.93;;
21299;SDS011;10809;49.476;11.016;2022-08-19T01:05:20;11.45;;;10.25;;
21299;SDS011;10809;49.476;11.016;2022-08-19T01:08:01;10.57;;;9.40;;
21299;SDS011;10809;49.476;11.016;2022-08-19T01:10:37;10.18;;;9.13;;
21299;SDS011;10809;49.476;11.016;2022-08-19T01:13:11;10.57;;;9.55;;
21299;SDS011;10809;49.476;11.016;2022-08-19T01:15:45;12.18;;;9.88;;
21299;SDS011;10809;49.476;11.016;2022-08-19T01:18:21;13.25;;;10.77;;
21299;SDS011;10809;49.476;11.016;2022-08-19T01:20:55;11.30;;;10.20;;
21299;SDS011;10809;49.476;11.016;2022-08-19T01:23:28;13.30;;;10.15;;
21299;SDS011;10809;49.476;11.016;2022-08-19T01:26:14;10.80;;;9.73;;
21299;SDS011;10809;49.476;11.016;2022-08-19T01:28:48;11.95;;;10.75;;
21299;SDS011;10809;49.476;11.016;2022-08-19T01:31:22;12.05;;;10.45;;
21299;SDS011;10809;49.476;11.016;2022-08-19T01:33:56;10.50;;;9.50;;
21299;SDS011;10809;49.476;11.016;2022-08-19T01:36:29;11.85;;;10.65;;
21299;SDS011;10809;49.476;11.016;2022-08-19T01:39:05;11.43;;;10.40;;
21299;SDS011;10809;49.476;11.016;2022-08-19T01:41:42;12.00;;;10.48;;
21299;SDS011;10809;49.476;11.016;2022-08-19T01:44:12;13.63;;;10.85;;
21299;SDS011;10809;49.476;11.016;2022-08-19T01:46:43;13.05;;;11.55;;
21299;SDS011;10809;49.476;11.016;2022-08-19T01:49:17;12.15;;;10.93;;
21299;SDS011;10809;49.476;11.016;2022-08-19T01:51:49;11.30;;;9.77;;
21299;SDS011;10809;49.476;11.016;2022-08-19T01:54:21;11.70;;;10.50;;
21299;SDS011;10809;49.476;11.016;2022-08-19T01:56:56;10.77;;;9.75;;
21299;SDS011;10809;49.476;11.016;2022-08-19T01:59:37;11.15;;;10.05;;
21299;SDS011;10809;49.476;11.016;2022-08-19T02:02:13;10.88;;;9.73;;
21299;SDS011;10809;49.476;11.016;2022-08-19T02:04:44;12.27;;;10.98;;
21299;SDS011;10809;49.476;11.016;2022-08-19T02:07:18;12.05;;;10.77;;
21299;SDS011;10809;49.476;11.016;2022-08-19T02:09:50;11.55;;;10.35;;
21299;SDS011;10809;49.476;11.016;2022-08-19T02:12:21;12.88;;;11.57;;
21299;SDS011;10809;49.476;11.016;2022-08-19T02:14:51;13.00;;;11.10;;
21299;SDS011;10809;49.476;11.016;2022-08-19T02:17:22;12.93;;;11.25;;
21299;SDS011;10809;49.476;11.016;2022-08-19T02:19:58;14.98;;;12.25;;
21299;SDS011;10809;49.476;11.016;2022-08-19T02:22:30;13.65;;;12.02;;
21299;SDS011;10809;49.476;11.016;2022-08-19T02:25:03;15.10;;;13.10;;
21299;SDS011;10809;49.476;11.016;2022-08-19T02:27:34;14.50;;;12.70;;
21299;SDS011;10809;49.476;11.016;2022-08-19T02:30:05;15.55;;;13.60;;
21299;SDS011;10809;49.476;11.016;2022-08-19T02:32:40;14.90;;;13.32;;
21299;SDS011;10809;49.476;11.016;2022-08-19T02:35:14;14.00;;;12.05;;
21299;SDS011;10809;49.476;11.016;2022-08-19T02:37:45;15.18;;;12.48;;
21299;SDS011;10809;49.476;11.016;2022-08-19T02:40:35;13.75;;;12.25;;
21299;SDS011;10809;49.476;11.016;2022-08-19T02:43:07;14.02;;;12.00;;
21299;SDS011;10809;49.476;11.016;2022-08-19T02:45:38;17.25;;;12.27;;
21299;SDS011;10809;49.476;11.016;2022-08-19T02:48:11;15.07;;;12.10;;
21299;SDS011;10809;49.476;11.016;2022-08-19T02:50:42;15.48;;;12.50;;
21299;SDS011;10809;49.476;11.016;2022-08-19T02:53:15;14.07;;;12.18;;
21299;SDS011;10809;49.476;11.016;2022-08-19T02:55:46;14.65;;;12.48;;
21299;SDS011;10809;49.476;11.016;2022-08-19T02:58:17;13.93;;;12.23;;
21299;SDS011;10809;49.476;11.016;2022-08-19T03:00:49;14.48;;;12.63;;
21299;SDS011;10809;49.476;11.016;2022-08-19T03:03:24;15.10;;;12.98;;
21299;SDS011;10809;49.476;11.016;2022-08-19T03:06:08;13.65;;;12.23;;
21299;SDS011;10809;49.476;11.016;2022-08-19T03:08:44;14.15;;;12.43;;
21299;SDS011;10809;49.476;11.016;2022-08-19T03:11:17;14.45;;;12.45;;
21299;SDS011;10809;49.476;11.016;2022-08-19T03:13:53;14.30;;;12.60;;
21299;SDS011;10809;49.476;11.016;2022-08-19T03:16:28;14.68;;;11.50;;
21299;SDS011;10809;49.476;11.016;2022-08-19T03:19:00;13.35;;;11.95;;
21299;SDS011;10809;49.476;11.016;2022-08-19T03:21:32;13.93;;;12.52;;
21299;SDS011;10809;49.476;11.016;2022-08-19T03:24:07;13.70;;;12.20;;
21299;SDS011;10809;49.476;11.016;2022-08-19T03:26:39;14.68;;;13.10;;
21299;SDS011;10809;49.476;11.016;2022-08-19T03:29:11;14.88;;;12.98;;
21299;SDS011;10809;49.476;11.016;2022-08-19T03:31:45;14.48;;;12.77;;
21299;SDS011;10809;49.476;11.016;2022-08-19T03:34:20;14.02;;;11.55;;
21299;SDS011;10809;49.476;11.016;2022-08-19T03:36:58;14.20;;;11.73;;
21299;SDS011;10809;49.476;11.016;2022-08-19T03:39:33;16.02;;;13.98;;
21299;SDS011;10809;49.476;11.016;2022-08-19T03:42:06;15.88;;;13.43;;
21299;SDS011;10809;49.476;11.016;2022-08-19T03:44:36;15.52;;;13.88;;
21299;SDS011;10809;49.476;11.016;2022-08-19T03:47:07;16.73;;;14.55;;
21299;SDS011;10809;49.476;11.016;2022-08-19T03:49:38;15.32;;;13.63;;
21299;SDS011;10809;49.476;11.016;2022-08-19T03:52:08;15.65;;;13.32;;
21299;SDS011;10809;49.476;11.016;2022-08-19T03:54:39;17.15;;;13.32;;
21299;SDS011;10809;49.476;11.016;2022-08-19T03:57:12;15.80;;;14.02;;
21299;SDS011;10809;49.476;11.016;2022-08-19T03:59:42;16.50;;;13.20;;
21299;SDS011;10809;49.476;11.016;2022-08-19T04:02:14;17.17;;;14.30;;
21299;SDS011;10809;49.476;11.016;2022-08-19T04:04:44;16.58;;;14.05;;
21299;SDS011;10809;49.476;11.016;2022-08-19T04:07:14;17.05;;;14.82;;
21299;SDS011;10809;49.476;11.016;2022-08-19T04:09:51;16.63;;;13.80;;
21299;SDS011;10809;49.476;11.016;2022-08-19T04:12:25;14.80;;;13.02;;
21299;SDS011;10809;49.476;11.016;2022-08-19T04:14:55;16.95;;;14.98;;
21299;SDS011;10809;49.476;11.016;2022-08-19T04:17:25;17.25;;;14.40;;
21299;SDS011;10809;49.476;11.016;2022-08-19T04:19:56;17.17;;;14.32;;
21299;SDS011;10809;49.476;11.016;2022-08-19T04:22:26;17.45;;;14.57;;
21299;SDS011;10809;49.476;11.016;2022-08-19T04:24:56;16.75;;;13.98;;
21299;SDS011;10809;49.476;11.016;2022-08-19T04:27:27;16.55;;;14.50;;
21299;SDS011;10809;49.476;11.016;2022-08-19T04:29:58;16.15;;;14.32;;
21299;SDS011;10809;49.476;11.016;2022-08-19T04:32:34;17.75;;;15.27;;
21299;SDS011;10809;49.476;11.016;2022-08-19T04:35:05;16.90;;;14.10;;
21299;SDS011;10809;49.476;11.016;2022-08-19T04:37:36;16.42;;;14.40;;
21299;SDS011;10809;49.476;11.016;2022-08-19T04:40:06;19.00;;;15.88;;
21299;SDS011;10809;49.476;11.016;2022-08-19T04:42:55;17.30;;;14.57;;
21299;SDS011;10809;49.476;11.016;2022-08-19T04:45:26;17.70;;;15.20;;
21299;SDS011;10809;49.476;11.016;2022-08-19T04:47:56;18.52;;;15.18;;
21299;SDS011;10809;49.476;11.016;2022-08-19T04:50:27;18.98;;;15.25;;
21299;SDS011;10809;49.476;11.016;2022-08-19T04:52:58;16.83;;;13.75;;
21299;SDS011;10809;49.476;11.016;2022-08-19T04:55:31;17.02;;;13.52;;
21299;SDS011;10809;49.476;11.016;2022-08-19T04:58:01;18.45;;;14.35;;
21299;SDS011;10809;49.476;11.016;2022-08-19T05:00:32;21.10;;;15.88;;
21299;SDS011;10809;49.476;11.016;2022-08-19T05:03:06;18.80;;;15.05;;
21299;SDS011;10809;49.476;11.016;2022-08-19T05:05:40;20.77;;;16.17;;
21299;SDS011;10809;49.476;11.016;2022-08-19T05:08:12;17.48;;;13.95;;
21299;SDS011;10809;49.476;11.016;2022-08-19T05:10:42;16.77;;;13.30;;
21299;SDS011;10809;49.476;11.016;2022-08-19T05:13:17;22.67;;;16.33;;
21299;SDS011;10809;49.476;11.016;2022-08-19T05:15:57;16.38;;;13.48;;
21299;SDS011;10809;49.476;11.016;2022-08-19T05:18:28;19.05;;;15.75;;
21299;SDS011;10809;49.476;11.016;2022-08-19T05:21:20;20.40;;;16.10;;
21299;SDS011;10809;49.476;11.016;2022-08-19T05:24:10;18.92;;;14.93;;
21299;SDS011;10809;49.476;11.016;2022-08-19T05:26:42;19.52;;;15.85;;
21299;SDS011;10809;49.476;11.016;2022-08-19T05:29:17;18.95;;;15.57;;
21299;SDS011;10809;49.476;11.016;2022-08-19T05:31:50;18.08;;;15.40;;
21299;SDS011;10809;49.476;11.016;2022-08-19T05:34:22;18.48;;;15.65;;
21299;SDS011;10809;49.476;11.016;2022-08-19T05:36:57;18.38;;;14.60;;
21299;SDS011;10809;49.476;11.016;2022-08-19T05:39:29;22.98;;;14.77;;
21299;SDS011;10809;49.476;11.016;2022-08-19T05:42:03;18.15;;;13.98;;
21299;SDS011;10809;49.476;11.016;2022-08-19T05:44:41;19.42;;;15.25;;
21299;SDS011;10809;49.476;11.016;2022-08-19T05:47:17;18.75;;;14.23;;
21299;SDS011;10809;49.476;11.016;2022-08-19T05:49:49;18.35;;;14.80;;
21299;SDS011;10809;49.476;11.016;2022-08-19T05:52:20;20.13;;;15.18;;
21299;SDS011;10809;49.476;11.016;2022-08-19T05:54:51;20.95;;;15.57;;
21299;SDS011;10809;49.476;11.016;2022-08-19T05:57:22;19.73;;;15.57;;
21299;SDS011;10809;49.476;11.016;2022-08-19T05:59:53;19.58;;;14.43;;
21299;SDS011;10809;49.476;11.016;2022-08-19T06:02:27;19.13;;;15.18;;
21299;SDS011;10809;49.476;11.016;2022-08-19T06:05:00;17.17;;;14.35;;
21299;SDS011;10809;49.476;11.016;2022-08-19T06:07:32;20.38;;;14.98;;
21299;SDS011;10809;49.476;11.016;2022-08-19T06:10:07;17.48;;;14.93;;
21299;SDS011;10809;49.476;11.016;2022-08-19T06:12:42;18.30;;;14.77;;
21299;SDS011;10809;49.476;11.016;2022-08-19T06:15:13;18.38;;;14.80;;
21299;SDS011;10809;49.476;11.016;2022-08-19T06:17:44;18.02;;;13.48;;
21299;SDS011;10809;49.476;11.016;2022-08-19T06:20:14;15.45;;;13.68;;
21299;SDS011;10809;49.476;11.016;2022-08-19T06:22:57;17.33;;;14.45;;
21299;SDS011;10809;49.476;11.016;2022-08-19T06:25:29;18.88;;;14.88;;
21299;SDS011;10809;49.476;11.016;2022-08-19T06:27:59;14.52;;;12.32;;
21299;SDS011;10809;49.476;11.016;2022-08-19T06:30:30;17.35;;;13.35;;
21299;SDS011;10809;49.476;11.016;2022-08-19T06:33:00;15.40;;;13.30;;
21299;SDS011;10809;49.476;11.016;2022-08-19T06:35:31;14.77;;;12.50;;
21299;SDS011;10809;49.476;11.016;2022-08-19T06:38:01;13.65;;;12.00;;
21299;SDS011;10809;49.476;11.016;2022-08-19T06:40:33;19.10;;;13.52;;
21299;SDS011;10809;49.476;11.016;2022-08-19T06:43:03;17.13;;;12.48;;
21299;SDS011;10809;49.476;11.016;2022-08-19T06:45:35;15.27;;;13.27;;
21299;SDS011;10809;49.476;11.016;2022-08-19T06:48:08;16.40;;;12.60;;
21299;SDS011;10809;49.476;11.016;2022-08-19T06:50:38;13.90;;;11.77;;
21299;SDS011;10809;49.476;11.016;2022-08-19T06:53:09;15.65;;;12.43;;
21299;SDS011;10809;49.476;11.016;2022-08-19T06:55:39;14.57;;;12.23;;
21299;SDS011;10809;49.476;11.016;2022-08-19T06:58:10;15.38;;;13.07;;
21299;SDS011;10809;49.476;11.016;2022-08-19T07:00:44;13.13;;;11.73;;
21299;SDS011;10809;49.476;11.016;2022-08-19T07:03:14;16.92;;;13.15;;
21299;SDS011;10809;49.476;11.016;2022-08-19T07:05:50;11.50;;;10.23;;
21299;SDS011;10809;49.476;11.016;2022-08-19T07:08:20;14.00;;;11.98;;
21299;SDS011;10809;49.476;11.016;2022-08-19T07:10:51;13.88;;;11.35;;
21299;SDS011;10809;49.476;11.016;2022-08-19T07:13:21;14.45;;;12.95;;
21299;SDS011;10809;49.476;11.016;2022-08-19T07:15:52;13.15;;;11.65;;
21299;SDS011;10809;49.476;11.016;2022-08-19T07:18:22;14.55;;;11.18;;
21299;SDS011;10809;49.476;11.016;2022-08-19T07:21:01;13.77;;;11.10;;
21299;SDS011;10809;49.476;11.016;2022-08-19T07:23:35;12.75;;;10.30;;
21299;SDS011;10809;49.476;11.016;2022-08-19T07:26:20;12.07;;;10.35;;
21299;SDS011;10809;49.476;11.016;2022-08-19T07:28:53;10.75;;;9.63;;
21299;SDS011;10809;49.476;11.016;2022-08-19T07:31:26;13.07;;;10.30;;
21299;SDS011;10809;49.476;11.016;2022-08-19T07:33:57;16.02;;;10.38;;
21299;SDS011;10809;49.476;11.016;2022-08-19T07:36:28;10.80;;;9.65;;
21299;SDS011;10809;49.476;11.016;2022-08-19T07:39:04;11.90;;;10.07;;
21299;SDS011;10809;49.476;11.016;2022-08-19T07:41:36;11.85;;;10.65;;
21299;SDS011;10809;49.476;11.016;2022-08-19T07:44:08;11.88;;;10.55;;
21299;SDS011;10809;49.476;11.016;2022-08-19T07:46:40;13.20;;;11.00;;
21299;SDS011;10809;49.476;11.016;2022-08-19T07:49:14;12.10;;;10.90;;
21299;SDS011;10809;49.476;11.016;2022-08-19T07:51:53;13.93;;;10.25;;
21299;SDS011;10809;49.476;11.016;2022-08-19T07:54:30;13.52;;;11.32;;
21299;SDS011;10809;49.476;11.016;2022-08-19T07:57:04;15.50;;;11.68;;
21299;SDS011;10809;49.476;11.016;2022-08-19T07:59:35;11.38;;;9.63;;
21299;SDS011;10809;49.476;11.016;2022-08-19T08:02:06;13.63;;;11.20;;
21299;SDS011;10809;49.476;11.016;2022-08-19T08:04:38;11.55;;;10.32;;
21299;SDS011;10809;49.476;11.016;2022-08-19T08:07:27;14.63;;;12.55;;
21299;SDS011;10809;49.476;11.016;2022-08-19T08:10:19;14.70;;;10.80;;
21299;SDS011;10809;49.476;11.016;2022-08-19T08:12:50;16.52;;;11.82;;
21299;SDS011;10809;49.476;11.016;2022-08-19T08:15:21;20.85;;;12.73;;
21299;SDS011;10809;49.476;11.016;2022-08-19T08:17:51;16.90;;;13.10;;
21299;SDS011;10809;49.476;11.016;2022-08-19T08:20:22;17.50;;;13.77;;
21299;SDS011;10809;49.476;11.016;2022-08-19T08:22:52;19.27;;;13.52;;
21299;SDS011;10809;49.476;11.016;2022-08-19T08:25:41;15.65;;;14.00;;
21299;SDS011;10809;49.476;11.016;2022-08-19T08:28:11;15.55;;;13.07;;
21299;SDS011;10809;49.476;11.016;2022-08-19T08:30:42;15.68;;;13.77;;
21299;SDS011;10809;49.476;11.016;2022-08-19T08:33:13;18.17;;;14.15;;
21299;SDS011;10809;49.476;11.016;2022-08-19T08:35:47;17.83;;;14.43;;
21299;SDS011;10809;49.476;11.016;2022-08-19T08:38:18;18.83;;;14.55;;
21299;SDS011;10809;49.476;11.016;2022-08-19T08:40:50;17.17;;;13.75;;
21299;SDS011;10809;49.476;11.016;2022-08-19T08:43:29;16.25;;;13.32;;
21299;SDS011;10809;49.476;11.016;2022-08-19T08:46:08;15.60;;;13.48;;
21299;SDS011;10809;49.476;11.016;2022-08-19T08:51:57;18.10;;;13.77;;
21299;SDS011;10809;49.476;11.016;2022-08-19T08:54:34;15.23;;;12.73;;
21299;SDS011;10809;49.476;11.016;2022-08-19T08:57:27;15.95;;;13.98;;
21299;SDS011;10809;49.476;11.016;2022-08-19T09:00:04;14.88;;;12.68;;
21299;SDS011;10809;49.476;11.016;2022-08-19T09:02:45;15.75;;;13.77;;
21299;SDS011;10809;49.476;11.016;2022-08-19T09:05:15;15.15;;;12.93;;
21299;SDS011;10809;49.476;11.016;2022-08-19T09:07:57;14.43;;;12.27;;
21299;SDS011;10809;49.476;11.016;2022-08-19T09:10:37;13.77;;;12.00;;
21299;SDS011;10809;49.476;11.016;2022-08-19T09:13:38;14.50;;;11.73;;
21299;SDS011;10809;49.476;11.016;2022-08-19T09:16:32;15.35;;;12.15;;
21299;SDS011;10809;49.476;11.016;2022-08-19T09:19:03;13.15;;;11.02;;
21299;SDS011;10809;49.476;11.016;2022-08-19T09:21:36;38.03;;;25.13;;
21299;SDS011;10809;49.476;11.016;2022-08-19T09:24:08;22.48;;;14.70;;
21299;SDS011;10809;49.476;11.016;2022-08-19T09:26:38;14.30;;;12.05;;
21299;SDS011;10809;49.476;11.016;2022-08-19T09:29:09;14.13;;;11.93;;
21299;SDS011;10809;49.476;11.016;2022-08-19T09:31:42;15.50;;;12.98;;
21299;SDS011;10809;49.476;11.016;2022-08-19T09:34:16;16.23;;;11.20;;
21299;SDS011;10809;49.476;11.016;2022-08-19T09:36:49;14.38;;;11.98;;
21299;SDS011;10809;49.476;11.016;2022-08-19T09:39:23;16.65;;;12.48;;
21299;SDS011;10809;49.476;11.016;2022-08-19T09:41:53;15.32;;;12.93;;
21299;SDS011;10809;49.476;11.016;2022-08-19T09:44:30;15.32;;;12.25;;
21299;SDS011;10809;49.476;11.016;2022-08-19T09:47:00;17.17;;;13.63;;
21299;SDS011;10809;49.476;11.016;2022-08-19T09:49:31;17.52;;;13.93;;
21299;SDS011;10809;49.476;11.016;2022-08-19T09:52:02;16.67;;;12.88;;
21299;SDS011;10809;49.476;11.016;2022-08-19T09:54:32;15.30;;;11.88;;
21299;SDS011;10809;49.476;11.016;2022-08-19T09:57:04;14.93;;;12.65;;
21299;SDS011;10809;49.476;11.016;2022-08-19T09:59:38;21.33;;;12.63;;
21299;SDS011;10809;49.476;11.016;2022-08-19T10:02:09;14.50;;;12.60;;
21299;SDS011;10809;49.476;11.016;2022-08-19T10:04:40;15.00;;;12.45;;
21299;SDS011;10809;49.476;11.016;2022-08-19T10:07:29;15.05;;;13.00;;
21299;SDS011;10809;49.476;11.016;2022-08-19T10:10:00;14.93;;;12.82;;
21299;SDS011;10809;49.476;11.016;2022-08-19T10:12:33;13.88;;;11.93;;
21299;SDS011;10809;49.476;11.016;2022-08-19T10:15:04;14.80;;;11.70;;
21299;SDS011;10809;49.476;11.016;2022-08-19T10:17:36;14.40;;;12.57;;
21299;SDS011;10809;49.476;11.016;2022-08-19T10:20:06;12.02;;;10.32;;
21299;SDS011;10809;49.476;11.016;2022-08-19T10:22:37;13.82;;;12.43;;
21299;SDS011;10809;49.476;11.016;2022-08-19T10:25:08;13.73;;;10.77;;
21299;SDS011;10809;49.476;11.016;2022-08-19T10:27:39;13.20;;;10.63;;
21299;SDS011;10809;49.476;11.016;2022-08-19T10:30:10;15.40;;;12.23;;
21299;SDS011;10809;49.476;11.016;2022-08-19T10:32:41;14.88;;;11.40;;
21299;SDS011;10809;49.476;11.016;2022-08-19T10:35:12;13.05;;;10.10;;
21299;SDS011;10809;49.476;11.016;2022-08-19T10:37:43;12.85;;;10.63;;
21299;SDS011;10809;49.476;11.016;2022-08-19T10:40:13;13.23;;;11.30;;
21299;SDS011;10809;49.476;11.016;2022-08-19T10:42:47;15.10;;;11.13;;
21299;SDS011;10809;49.476;11.016;2022-08-19T10:45:17;15.23;;;11.32;;
21299;SDS011;10809;49.476;11.016;2022-08-19T10:47:48;12.20;;;10.73;;
21299;SDS011;10809;49.476;11.016;2022-08-19T10:50:18;13.27;;;11.32;;
21299;SDS011;10809;49.476;11.016;2022-08-19T10:53:08;11.18;;;9.98;;
21299;SDS011;10809;49.476;11.016;2022-08-19T10:55:38;10.75;;;9.73;;
21299;SDS011;10809;49.476;11.016;2022-08-19T10:58:27;11.98;;;9.95;;
21299;SDS011;10809;49.476;11.016;2022-08-19T11:00:58;13.00;;;9.88;;
21299;SDS011;10809;49.476;11.016;2022-08-19T11:03:28;11.02;;;9.68;;
21299;SDS011;10809;49.476;11.016;2022-08-19T11:06:04;10.90;;;9.88;;
21299;SDS011;10809;49.476;11.016;2022-08-19T11:08:38;11.18;;;9.93;;
21299;SDS011;10809;49.476;11.016;2022-08-19T11:11:11;11.98;;;10.38;;
21299;SDS011;10809;49.476;11.016;2022-08-19T11:13:42;14.93;;;11.20;;
21299;SDS011;10809;49.476;11.016;2022-08-19T11:16:15;14.32;;;11.45;;
21299;SDS011;10809;49.476;11.016;2022-08-19T11:18:49;11.73;;;10.40;;
21299;SDS011;10809;49.476;11.016;2022-08-19T11:21:23;11.27;;;10.18;;
21299;SDS011;10809;49.476;11.016;2022-08-19T11:23:54;11.63;;;9.98;;
21299;SDS011;10809;49.476;11.016;2022-08-19T11:26:27;11.57;;;10.38;;
21299;SDS011;10809;49.476;11.016;2022-08-19T11:28:59;11.30;;;10.20;;
21299;SDS011;10809;49.476;11.016;2022-08-19T11:31:31;12.73;;;10.25;;
21299;SDS011;10809;49.476;11.016;2022-08-19T11:34:03;11.95;;;9.52;;
21299;SDS011;10809;49.476;11.016;2022-08-19T11:36:38;13.15;;;10.38;;
21299;SDS011;10809;49.476;11.016;2022-08-19T11:39:11;13.07;;;10.05;;
21299;SDS011;10809;49.476;11.016;2022-08-19T11:41:44;10.10;;;9.13;;
21299;SDS011;10809;49.476;11.016;2022-08-19T11:44:15;10.65;;;9.23;;
21299;SDS011;10809;49.476;11.016;2022-08-19T11:46:45;10.88;;;9.80;;
21299;SDS011;10809;49.476;11.016;2022-08-19T11:49:19;10.07;;;9.10;;
21299;SDS011;10809;49.476;11.016;2022-08-19T11:51:51;10.85;;;9.73;;
21299;SDS011;10809;49.476;11.016;2022-08-19T11:54:23;11.82;;;10.40;;
21299;SDS011;10809;49.476;11.016;2022-08-19T11:56:53;11.00;;;9.90;;
21299;SDS011;10809;49.476;11.016;2022-08-19T11:59:24;15.60;;;11.00;;
21299;SDS011;10809;49.476;11.016;2022-08-19T12:01:54;11.95;;;10.25;;
21299;SDS011;10809;49.476;11.016;2022-08-19T12:04:28;12.43;;;11.23;;
21299;SDS011;10809;49.476;11.016;2022-08-19T12:06:59;15.15;;;12.27;;
21299;SDS011;10809;49.476;11.016;2022-08-19T12:09:29;12.48;;;11.18;;
21299;SDS011;10809;49.476;11.016;2022-08-19T12:12:00;11.07;;;9.98;;
21299;SDS011;10809;49.476;11.016;2022-08-19T12:14:31;12.00;;;10.73;;
21299;SDS011;10809;49.476;11.016;2022-08-19T12:17:02;12.98;;;11.57;;
21299;SDS011;10809;49.476;11.016;2022-08-19T12:19:35;12.82;;;10.75;;
21299;SDS011;10809;49.476;11.016;2022-08-19T12:22:07;14.40;;;11.15;;
21299;SDS011;10809;49.476;11.016;2022-08-19T12:24:37;12.02;;;10.80;;
21299;SDS011;10809;49.476;11.016;2022-08-19T12:27:08;12.15;;;10.63;;
21299;SDS011;10809;49.476;11.016;2022-08-19T12:29:38;12.85;;;10.02;;
21299;SDS011;10809;49.476;11.016;2022-08-19T12:32:10;11.30;;;10.20;;
21299;SDS011;10809;49.476;11.016;2022-08-19T12:34:40;12.75;;;11.13;;
21299;SDS011;10809;49.476;11.016;2022-08-19T12:37:11;12.95;;;11.10;;
21299;SDS011;10809;49.476;11.016;2022-08-19T12:39:42;12.15;;;10.32;;
21299;SDS011;10809;49.476;11.016;2022-08-19T12:42:14;11.40;;;9.95;;
21299;SDS011;10809;49.476;11.016;2022-08-19T12:44:44;10.23;;;9.05;;
21299;SDS011;10809;49.476;11.016;2022-08-19T12:47:14;11.40;;;10.32;;
21299;SDS011;10809;49.476;11.016;2022-08-19T12:49:45;11.15;;;9.98;;
21299;SDS011;10809;49.476;11.016;2022-08-19T12:52:16;10.57;;;9.48;;
21299;SDS011;10809;49.476;11.016;2022-08-19T12:54:51;13.18;;;10.45;;
21299;SDS011;10809;49.476;11.016;2022-08-19T12:57:25;12.07;;;10.77;;
21299;SDS011;10809;49.476;11.016;2022-08-19T13:00:08;17.58;;;11.73;;
21299;SDS011;10809;49.476;11.016;2022-08-19T13:02:43;13.52;;;10.60;;
21299;SDS011;10809;49.476;11.016;2022-08-19T13:05:16;12.50;;;11.20;;
21299;SDS011;10809;49.476;11.016;2022-08-19T13:07:51;11.35;;;10.10;;
21299;SDS011;10809;49.476;11.016;2022-08-19T13:10:27;15.88;;;11.45;;
21299;SDS011;10809;49.476;11.016;2022-08-19T13:13:06;13.18;;;10.35;;
21299;SDS011;10809;49.476;11.016;2022-08-19T13:15:40;12.38;;;10.88;;
21299;SDS011;10809;49.476;11.016;2022-08-19T13:18:11;13.23;;;11.82;;
21299;SDS011;10809;49.476;11.016;2022-08-19T13:20:42;13.43;;;11.80;;
21299;SDS011;10809;49.476;11.016;2022-08-19T13:23:13;12.45;;;11.05;;
21299;SDS011;10809;49.476;11.016;2022-08-19T13:25:43;12.45;;;10.98;;
21299;SDS011;10809;49.476;11.016;2022-08-19T13:28:13;17.88;;;12.63;;
21299;SDS011;10809;49.476;11.016;2022-08-19T13:30:46;14.27;;;11.77;;
21299;SDS011;10809;49.476;11.016;2022-08-19T13:33:36;13.15;;;11.65;;
21299;SDS011;10809;49.476;11.016;2022-08-19T13:36:07;11.68;;;10.45;;
21299;SDS011;10809;49.476;11.016;2022-08-19T13:38:40;15.48;;;11.13;;
21299;SDS011;10809;49.476;11.016;2022-08-19T13:41:11;14.27;;;12.57;;
21299;SDS011;10809;49.476;11.016;2022-08-19T13:43:41;15.45;;;12.68;;
21299;SDS011;10809;49.476;11.016;2022-08-19T13:46:12;13.15;;;11.75;;
21299;SDS011;10809;49.476;11.016;2022-08-19T13:48:45;16.23;;;13.93;;
21299;SDS011;10809;49.476;11.016;2022-08-19T13:51:17;16.48;;;13.63;;
21299;SDS011;10809;49.476;11.016;2022-08-19T13:53:48;15.55;;;13.93;;
21299;SDS011;10809;49.476;11.016;2022-08-19T13:56:19;15.02;;;13.43;;
21299;SDS011;10809;49.476;11.016;2022-08-19T13:58:49;12.68;;;11.40;;
21299;SDS011;10809;49.476;11.016;2022-08-19T14:01:21;14.00;;;12.52;;
21299;SDS011;10809;49.476;11.016;2022-08-19T14:03:55;13.82;;;12.45;;
21299;SDS011;10809;49.476;11.016;2022-08-19T14:06:25;13.30;;;12.02;;
21299;SDS011;10809;49.476;11.016;2022-08-19T14:09:02;15.85;;;12.77;;
21299;SDS011;10809;49.476;11.016;2022-08-19T14:11:33;16.98;;;12.77;;
21299;SDS011;10809;49.476;11.016;2022-08-19T14:14:03;13.98;;;12.57;;
21299;SDS011;10809;49.476;11.016;2022-08-19T14:16:33;15.68;;;14.00;;
21299;SDS011;10809;49.476;11.016;2022-08-19T14:19:04;17.63;;;12.82;;
21299;SDS011;10809;49.476;11.016;2022-08-19T14:21:34;19.70;;;14.65;;
21299;SDS011;10809;49.476;11.016;2022-08-19T14:24:06;23.30;;;14.73;;
21299;SDS011;10809;49.476;11.016;2022-08-19T14:26:37;21.27;;;12.60;;
21299;SDS011;10809;49.476;11.016;2022-08-19T14:29:08;13.02;;;11.60;;
21299;SDS011;10809;49.476;11.016;2022-08-19T14:31:38;11.60;;;10.40;;
21299;SDS011;10809;49.476;11.016;2022-08-19T14:34:11;10.60;;;9.20;;
21299;SDS011;10809;49.476;11.016;2022-08-19T14:36:42;10.82;;;9.73;;
21299;SDS011;10809;49.476;11.016;2022-08-19T14:39:12;10.50;;;8.93;;
21299;SDS011;10809;49.476;11.016;2022-08-19T14:41:43;10.75;;;9.65;;
21299;SDS011;10809;49.476;11.016;2022-08-19T14:44:14;11.40;;;9.65;;
21299;SDS011;10809;49.476;11.016;2022-08-19T14:46:45;10.18;;;9.15;;
21299;SDS011;10809;49.476;11.016;2022-08-19T14:49:15;11.60;;;10.40;;